Time;durP1;ratioP1;P1;durP2;ratioP2;P2;SDS_P1;SDS_P2;PMS_P1;PMS_P2;Temp;Humidity;BMP_temperature;BMP_pressure;BME280_temperature;BME280_humidity;BME280_pressure;Samples;Min_cycle;Max_cycle;Signal;HPM_P1;HPM_P2
2021/01/10 00:00:47;;;;;;;2.10;1.75;;;23.70;40.50;;;;;;5183930;28;20108;-74
2021/01/10 00:03:17;;;;;;;1.70;1.60;;;23.60;40.40;;;;;;5167923;28;20034;-72
2021/01/10 00:05:48;;;;;;;1.70;1.60;;;23.60;40.60;;;;;;5185242;28;20042;-74
2021/01/10 00:08:18;;;;;;;1.80;1.70;;;23.50;40.50;;;;;;5167544;28;20026;-75
2021/01/10 00:10:49;;;;;;;1.88;1.67;;;23.60;40.40;;;;;;5184181;28;20084;-76
2021/01/10 00:13:20;;;;;;;1.83;1.73;;;23.70;40.50;;;;;;5183869;28;20120;-73
2021/01/10 00:15:50;;;;;;;2.90;1.63;;;23.60;40.50;;;;;;5199918;28;20084;-75
2021/01/10 00:18:21;;;;;;;2.17;1.98;;;23.70;40.30;;;;;;5183651;28;20080;-74
2021/01/10 00:20:51;;;;;;;2.17;1.67;;;23.70;40.20;;;;;;5167708;28;20433;-76
2021/01/10 00:23:22;;;;;;;2.75;1.80;;;23.70;40.30;;;;;;5167382;28;20032;-75
2021/01/10 00:25:52;;;;;;;2.65;1.58;;;23.70;40.20;;;;;;5185098;28;20563;-74
2021/01/10 00:28:23;;;;;;;1.85;1.73;;;23.70;40.30;;;;;;5151132;28;20494;-75
2021/01/10 00:30:53;;;;;;;1.92;1.67;;;23.70;40.60;;;;;;5150760;28;20033;-74
2021/01/10 00:33:24;;;;;;;1.67;1.58;;;23.70;40.70;;;;;;5167153;28;20041;-76
2021/01/10 00:35:54;;;;;;;4.45;1.80;;;23.80;40.80;;;;;;5166961;28;20029;-75
2021/01/10 00:38:25;;;;;;;4.25;2.08;;;23.70;39.60;;;;;;5167217;28;20394;-74
2021/01/10 00:40:55;;;;;;;4.75;2.47;;;23.60;40.00;;;;;;5151167;28;20030;-74
2021/01/10 00:43:26;;;;;;;4.82;1.92;;;23.50;39.90;;;;;;5183282;28;20038;-73
2021/01/10 00:45:56;;;;;;;4.57;2.17;;;23.60;40.20;;;;;;5166698;28;20118;-73
2021/01/10 00:48:27;;;;;;;2.95;2.15;;;23.60;40.20;;;;;;5182050;28;20036;-73
2021/01/10 00:50:57;;;;;;;2.00;1.80;;;23.60;40.20;;;;;;5183479;28;20478;-72
2021/01/10 00:53:28;;;;;;;3.35;1.88;;;23.50;40.30;;;;;;5184387;28;20060;-72
2021/01/10 00:55:58;;;;;;;2.45;1.60;;;23.50;40.40;;;;;;5167161;28;20486;-73
2021/01/10 00:58:29;;;;;;;2.72;1.70;;;23.60;40.50;;;;;;5150101;28;20030;-72
2021/01/10 01:00:59;;;;;;;1.70;1.60;;;23.50;40.60;;;;;;5149740;28;20026;-72
2021/01/10 01:03:30;;;;;;;1.50;1.40;;;23.50;40.90;;;;;;5182578;28;20057;-73
2021/01/10 01:06:00;;;;;;;2.88;1.40;;;23.50;41.10;;;;;;5183264;28;20022;-73
2021/01/10 01:08:31;;;;;;;1.80;1.50;;;23.40;41.10;;;;;;5182657;28;20033;-73
2021/01/10 01:11:02;;;;;;;1.50;1.40;;;23.40;41.20;;;;;;5166869;28;20052;-72
2021/01/10 01:13:33;;;;;;;3.90;1.30;;;23.50;41.20;;;;;;5166255;28;20414;-71
2021/01/10 01:16:06;;;;;;;1.73;1.55;;;23.40;41.30;;;;;;5166367;28;20570;-73
2021/01/10 01:18:37;;;;;;;1.38;1.27;;;23.50;41.10;;;;;;5165950;28;20034;-71
2021/01/10 01:21:07;;;;;;;1.40;1.30;;;23.60;41.20;;;;;;5184510;28;20036;-71
2021/01/10 01:23:38;;;;;;;1.30;1.13;;;23.50;41.20;;;;;;5198890;28;20110;-72
2021/01/10 01:26:19;;;;;;;1.40;1.27;;;23.50;41.40;;;;;;5184161;28;20026;-73
2021/01/10 01:28:49;;;;;;;1.33;1.23;;;23.50;41.50;;;;;;5166040;28;20576;-73
2021/01/10 01:31:21;;;;;;;1.20;1.10;;;23.40;41.60;;;;;;5166021;28;20041;-76
2021/01/10 01:33:52;;;;;;;1.40;1.30;;;23.50;41.50;;;;;;5166043;28;20537;-75
2021/01/10 01:36:24;;;;;;;1.42;1.33;;;23.50;41.60;;;;;;5175812;28;20029;-73
2021/01/10 01:38:55;;;;;;;1.13;1.02;;;23.40;41.80;;;;;;5182182;28;20402;-75
2021/01/10 01:41:26;;;;;;;1.45;1.10;;;23.40;41.70;;;;;;5166338;28;20450;-74
2021/01/10 01:43:56;;;;;;;1.30;1.20;;;23.40;41.70;;;;;;5166194;28;20058;-74
2021/01/10 01:46:29;;;;;;;1.10;1.02;;;23.50;41.80;;;;;;5165813;28;20029;-72
2021/01/10 01:49:03;;;;;;;1.27;1.00;;;23.40;41.90;;;;;;5149421;28;20038;-73
2021/01/10 01:51:34;;;;;;;0.90;0.90;;;23.50;41.80;;;;;;5166822;28;20029;-72
2021/01/10 01:54:05;;;;;;;1.73;1.17;;;23.40;41.80;;;;;;5166333;28;20042;-74
2021/01/10 01:56:36;;;;;;;1.20;1.10;;;23.40;41.90;;;;;;5165765;28;20391;-71
2021/01/10 01:59:08;;;;;;;1.20;1.10;;;23.40;41.80;;;;;;5183990;28;20038;-72
2021/01/10 02:01:39;;;;;;;0.98;0.98;;;23.40;41.90;;;;;;5171818;28;20034;-71
2021/01/10 02:04:30;;;;;;;1.10;1.00;;;23.40;42.10;;;;;;5190159;28;20062;-75
2021/01/10 02:07:05;;;;;;;1.10;1.00;;;23.40;42.10;;;;;;5157057;28;20029;-72
2021/01/10 02:09:52;;;;;;;1.00;1.00;;;23.30;42.30;;;;;;5188939;28;20064;-72
2021/01/10 02:12:22;;;;;;;1.30;1.20;;;23.30;42.20;;;;;;5172740;28;20030;-75
2021/01/10 02:14:57;;;;;;;1.20;1.10;;;23.40;42.30;;;;;;5173004;28;20423;-74
2021/01/10 02:17:27;;;;;;;1.08;0.98;;;23.30;42.30;;;;;;5172181;28;20048;-75
2021/01/10 02:20:12;;;;;;;1.20;1.10;;;23.40;42.50;;;;;;5156128;28;20022;-75
2021/01/10 02:22:47;;;;;;;1.15;1.05;;;23.40;42.20;;;;;;5188627;28;20556;-75
2021/01/10 02:25:17;;;;;;;3.22;0.90;;;23.40;42.30;;;;;;5189077;28;20025;-73
2021/01/10 02:27:48;;;;;;;1.85;0.90;;;23.40;42.30;;;;;;5155968;28;20033;-74
2021/01/10 02:30:19;;;;;;;1.25;1.15;;;23.40;42.40;;;;;;5155812;28;20034;-74
2021/01/10 02:32:51;;;;;;;1.70;1.00;;;23.40;42.40;;;;;;5171966;28;20417;-75
2021/01/10 02:35:21;;;;;;;1.00;1.00;;;23.40;42.30;;;;;;5172553;28;20036;-76
2021/01/10 02:38:11;;;;;;;1.00;1.00;;;23.50;42.20;;;;;;5172265;28;20030;-73
2021/01/10 02:41:01;;;;;;;2.30;1.00;;;23.50;42.40;;;;;;5173902;28;20026;-75
2021/01/10 02:43:31;;;;;;;0.98;0.93;;;23.50;42.20;;;;;;5156572;28;20180;-75
2021/01/10 02:46:03;;;;;;;2.22;1.00;;;23.40;42.50;;;;;;5172107;28;20108;-75
2021/01/10 02:48:33;;;;;;;1.33;0.98;;;23.40;42.50;;;;;;5188263;28;20498;-76
2021/01/10 02:51:04;;;;;;;2.25;1.10;;;23.40;42.70;;;;;;5172551;28;20038;-75
2021/01/10 02:53:35;;;;;;;1.55;1.13;;;23.40;42.80;;;;;;5171737;28;20030;-74
2021/01/10 02:56:06;;;;;;;0.90;0.90;;;23.40;42.60;;;;;;5172504;28;20029;-74
2021/01/10 02:58:37;;;;;;;1.50;1.08;;;23.40;42.60;;;;;;5171654;28;20030;-75
2021/01/10 03:01:09;;;;;;;0.80;0.80;;;23.40;42.60;;;;;;5172293;28;20091;-74
2021/01/10 03:03:40;;;;;;;1.10;1.00;;;23.30;42.80;;;;;;5171567;28;20033;-75
2021/01/10 03:06:10;;;;;;;1.83;0.80;;;23.40;42.60;;;;;;5155916;28;20049;-75
2021/01/10 03:08:41;;;;;;;0.93;0.93;;;23.40;42.70;;;;;;5171568;28;20044;-74
2021/01/10 03:11:12;;;;;;;1.20;1.10;;;23.30;42.90;;;;;;5170824;28;20030;-73
2021/01/10 03:13:42;;;;;;;1.20;1.10;;;23.30;43.00;;;;;;5152301;28;20057;-73
2021/01/10 03:16:13;;;;;;;0.90;0.90;;;23.20;42.80;;;;;;5184827;28;20048;-72
2021/01/10 03:18:43;;;;;;;1.00;1.00;;;23.30;42.80;;;;;;5168088;28;20042;-75
2021/01/10 03:21:14;;;;;;;0.90;0.90;;;23.40;42.70;;;;;;5185237;28;20026;-75
2021/01/10 03:23:45;;;;;;;1.20;1.10;;;23.30;42.80;;;;;;5184656;28;20038;-75
2021/01/10 03:26:15;;;;;;;1.10;1.00;;;23.20;42.90;;;;;;5169185;28;20020;-75
2021/01/10 03:28:46;;;;;;;1.10;1.00;;;23.30;42.90;;;;;;5184098;28;20046;-75
2021/01/10 03:31:16;;;;;;;0.85;0.85;;;23.30;43.00;;;;;;5184597;28;20521;-73
2021/01/10 03:33:46;;;;;;;1.00;1.00;;;23.30;42.90;;;;;;5168045;28;20069;-75
2021/01/10 03:36:17;;;;;;;1.10;0.98;;;23.30;42.90;;;;;;5186095;28;20402;-76
2021/01/10 03:38:47;;;;;;;0.90;0.90;;;23.30;42.90;;;;;;5167762;28;20041;-74
2021/01/10 03:41:18;;;;;;;1.02;1.00;;;23.30;43.50;;;;;;5184976;28;20069;-75
2021/01/10 03:43:48;;;;;;;1.20;1.10;;;23.40;42.80;;;;;;5184176;28;20034;-76
2021/01/10 03:46:19;;;;;;;1.10;1.02;;;23.40;42.70;;;;;;5168241;28;20057;-76
2021/01/10 03:48:49;;;;;;;0.98;0.98;;;23.30;42.70;;;;;;5183723;28;20750;-74
2021/01/10 03:51:26;;;;;;;1.10;1.00;;;23.30;42.90;;;;;;5168524;28;20044;-75
2021/01/10 03:53:57;;;;;;;1.23;1.05;;;23.30;42.80;;;;;;5168021;28;20050;-75
2021/01/10 03:56:27;;;;;;;1.38;1.13;;;23.40;42.80;;;;;;5184805;28;20165;-75
2021/01/10 03:58:58;;;;;;;0.90;0.90;;;23.40;42.80;;;;;;5183875;28;20032;-76
2021/01/10 04:01:28;;;;;;;1.08;1.00;;;23.40;42.60;;;;;;5184001;28;20026;-75
2021/01/10 04:03:59;;;;;;;1.05;0.98;;;23.40;42.50;;;;;;5183707;28;20453;-75
2021/01/10 04:06:29;;;;;;;2.08;1.30;;;23.40;43.10;;;;;;5167933;28;20030;-76
2021/01/10 04:09:00;;;;;;;0.90;0.90;;;23.40;42.40;;;;;;5167572;28;20463;-75
2021/01/10 04:11:30;;;;;;;1.20;1.10;;;23.40;43.00;;;;;;5184235;28;20025;-76
2021/01/10 04:14:01;;;;;;;1.13;1.00;;;23.30;42.80;;;;;;5167631;28;20089;-76
2021/01/10 04:16:32;;;;;;;1.10;1.00;;;23.20;42.90;;;;;;5183837;28;20034;-73
2021/01/10 04:19:02;;;;;;;1.20;1.00;;;23.30;42.80;;;;;;5167160;28;20025;-75
2021/01/10 04:21:36;;;;;;;1.02;0.93;;;23.30;42.70;;;;;;5151458;28;20117;-75
2021/01/10 04:24:06;;;;;;;1.30;1.20;;;23.30;42.60;;;;;;5182761;28;20072;-75
2021/01/10 04:26:37;;;;;;;0.98;0.90;;;23.30;42.70;;;;;;5167309;28;20049;-76
2021/01/10 04:29:08;;;;;;;1.20;1.10;;;23.40;42.70;;;;;;5167679;28;20080;-75
2021/01/10 04:31:39;;;;;;;1.20;1.10;;;23.30;42.80;;;;;;5182682;28;20041;-76
2021/01/10 04:34:09;;;;;;;1.20;1.10;;;23.20;42.90;;;;;;5167367;28;20029;-75
2021/01/10 04:36:40;;;;;;;1.27;1.20;;;23.20;43.00;;;;;;5183303;28;20025;-73
2021/01/10 04:39:10;;;;;;;1.08;1.05;;;23.30;43.00;;;;;;5167354;28;20619;-76
2021/01/10 04:41:41;;;;;;;1.15;1.05;;;23.30;43.00;;;;;;5183182;28;20034;-75
2021/01/10 04:44:14;;;;;;;1.40;1.30;;;23.20;42.90;;;;;;5167687;28;20435;-76
2021/01/10 04:46:45;;;;;;;1.30;1.20;;;23.30;43.00;;;;;;5182684;28;20084;-75
2021/01/10 04:49:15;;;;;;;1.13;1.02;;;23.20;42.90;;;;;;5167263;28;20034;-75
2021/01/10 04:51:46;;;;;;;1.20;1.10;;;23.20;43.00;;;;;;5150447;28;20076;-76
2021/01/10 04:54:16;;;;;;;1.73;1.33;;;23.20;43.00;;;;;;5183685;28;20026;-76
2021/01/10 04:56:47;;;;;;;1.77;1.30;;;23.20;43.00;;;;;;5166708;28;20478;-75
2021/01/10 04:59:18;;;;;;;1.42;1.33;;;23.20;43.10;;;;;;5166999;28;20038;-73
2021/01/10 05:01:50;;;;;;;1.40;1.30;;;23.20;43.00;;;;;;5166115;28;20406;-76
2021/01/10 05:04:21;;;;;;;1.30;1.20;;;23.20;43.00;;;;;;5183131;28;20026;-76
2021/01/10 05:06:52;;;;;;;1.38;1.27;;;23.20;43.00;;;;;;5166185;28;20040;-74
2021/01/10 05:09:22;;;;;;;1.20;1.10;;;23.20;42.80;;;;;;5167269;28;20036;-75
2021/01/10 05:11:53;;;;;;;1.55;1.25;;;23.30;43.00;;;;;;5166423;28;20663;-76
2021/01/10 05:14:24;;;;;;;1.30;1.20;;;23.30;42.90;;;;;;5167048;28;20033;-77
2021/01/10 05:16:59;;;;;;;1.40;1.30;;;23.20;43.00;;;;;;5165775;28;20074;-76
2021/01/10 05:19:30;;;;;;;1.25;1.15;;;23.20;43.10;;;;;;5166808;28;20085;-76
2021/01/10 05:22:05;;;;;;;1.48;1.38;;;23.30;42.90;;;;;;5166602;28;20026;-76
2021/01/10 05:24:35;;;;;;;1.95;1.50;;;23.20;43.10;;;;;;5151589;28;20033;-76
2021/01/10 05:27:06;;;;;;;2.17;1.60;;;23.20;43.20;;;;;;5166398;28;20022;-75
2021/01/10 05:29:36;;;;;;;1.40;1.30;;;23.20;43.10;;;;;;5166414;28;20514;-74
2021/01/10 05:32:07;;;;;;;1.60;1.50;;;23.20;43.00;;;;;;5149189;28;20037;-75
2021/01/10 05:34:37;;;;;;;1.30;1.20;;;23.10;43.20;;;;;;5165535;28;20030;-75
2021/01/10 05:37:14;;;;;;;1.40;1.30;;;23.20;43.10;;;;;;5166078;28;20044;-76
2021/01/10 05:39:45;;;;;;;1.50;1.40;;;23.10;43.20;;;;;;5149980;28;20058;-76
2021/01/10 05:42:15;;;;;;;1.40;1.30;;;23.10;43.20;;;;;;5182314;28;20208;-75
2021/01/10 05:44:47;;;;;;;1.38;1.27;;;23.20;43.20;;;;;;5150379;28;20107;-75
2021/01/10 05:47:18;;;;;;;1.63;1.42;;;23.20;43.10;;;;;;5181789;28;20053;-75
2021/01/10 05:49:50;;;;;;;1.95;1.55;;;23.20;43.30;;;;;;5182152;28;20529;-75
2021/01/10 05:52:21;;;;;;;1.52;1.40;;;23.20;43.20;;;;;;5166067;28;20052;-75
2021/01/10 05:54:53;;;;;;;1.63;1.35;;;23.10;43.40;;;;;;5183750;28;20746;-76
2021/01/10 05:57:27;;;;;;;2.45;1.55;;;23.20;43.20;;;;;;5166151;28;20033;-76
2021/01/10 05:59:58;;;;;;;1.63;1.50;;;23.20;43.30;;;;;;5166234;28;20026;-76
2021/01/10 06:02:35;;;;;;;1.48;1.38;;;23.20;43.20;;;;;;5148584;28;20057;-76
2021/01/10 06:05:13;;;;;;;1.60;1.40;;;23.20;43.20;;;;;;5174133;28;20075;-75
2021/01/10 06:07:48;;;;;;;3.53;1.25;;;23.20;43.20;;;;;;5182114;28;20042;-76
2021/01/10 06:10:26;;;;;;;1.58;1.48;;;23.20;43.10;;;;;;5166491;28;20026;-75
2021/01/10 06:13:04;;;;;;;1.58;1.48;;;23.10;43.30;;;;;;5165735;28;20048;-75
2021/01/10 06:15:35;;;;;;;1.60;1.50;;;23.10;43.40;;;;;;5166310;28;20049;-75
2021/01/10 06:18:06;;;;;;;1.45;1.35;;;23.10;43.40;;;;;;5165606;28;20030;-76
2021/01/10 06:20:36;;;;;;;1.65;1.50;;;23.20;43.40;;;;;;5183250;28;20025;-76
2021/01/10 06:23:07;;;;;;;1.60;1.50;;;23.20;43.40;;;;;;5165714;28;20122;-76
2021/01/10 06:25:38;;;;;;;2.55;1.38;;;23.10;43.30;;;;;;5182377;28;20022;-74
2021/01/10 06:28:13;;;;;;;1.63;1.52;;;23.10;43.50;;;;;;5181868;28;20065;-74
2021/01/10 06:30:50;;;;;;;1.95;1.70;;;23.10;43.50;;;;;;5183085;28;20038;-76
2021/01/10 06:33:26;;;;;;;1.85;1.33;;;23.10;43.40;;;;;;5165923;28;20030;-75
2021/01/10 06:36:04;;;;;;;2.85;1.60;;;23.10;43.40;;;;;;5198657;28;20022;-75
2021/01/10 06:38:36;;;;;;;2.53;1.60;;;23.10;43.50;;;;;;5165524;28;20082;-75
2021/01/10 06:41:18;;;;;;;1.80;1.50;;;23.10;43.40;;;;;;5166165;28;20022;-76
2021/01/10 06:43:52;;;;;;;3.08;1.40;;;23.10;43.50;;;;;;5181646;28;20034;-76
2021/01/10 06:46:22;;;;;;;1.67;1.58;;;23.10;43.40;;;;;;5182296;28;20044;-76
2021/01/10 06:48:53;;;;;;;5.05;2.20;;;23.30;43.10;;;;;;5168667;28;20034;-75
2021/01/10 06:51:28;;;;;;;4.57;2.17;;;23.40;43.20;;;;;;5169754;28;20036;-75
2021/01/10 06:54:05;;;;;;;2.95;2.45;;;23.30;42.90;;;;;;5169344;28;20034;-75
2021/01/10 06:56:36;;;;;;;4.20;2.70;;;23.10;43.30;;;;;;5169576;28;20034;-75
2021/01/10 06:59:10;;;;;;;3.28;2.80;;;23.10;42.90;;;;;;5169590;28;20500;-76
2021/01/10 07:01:50;;;;;;;3.50;2.65;;;23.10;42.60;;;;;;5201129;28;20034;-75
2021/01/10 07:04:24;;;;;;;3.53;3.22;;;23.10;42.40;;;;;;5186975;28;20022;-77
2021/01/10 07:06:55;;;;;;;4.68;2.67;;;23.10;42.10;;;;;;5168832;28;20022;-75
2021/01/10 07:09:25;;;;;;;4.00;2.83;;;23.10;41.70;;;;;;5169602;28;20041;-75
2021/01/10 07:11:56;;;;;;;5.03;2.47;;;23.20;41.70;;;;;;5185100;28;20038;-73
2021/01/10 07:14:26;;;;;;;5.07;2.90;;;23.20;41.40;;;;;;5151105;28;20387;-75
2021/01/10 07:17:09;;;;;;;3.92;2.60;;;23.20;41.40;;;;;;5178332;28;20030;-74
2021/01/10 07:19:47;;;;;;;3.08;2.78;;;23.10;41.30;;;;;;5168721;28;20085;-73
2021/01/10 07:22:28;;;;;;;2.95;2.60;;;23.00;41.30;;;;;;5166146;28;20034;-74
2021/01/10 07:25:00;;;;;;;3.80;2.50;;;23.00;41.30;;;;;;5184863;28;20021;-76
2021/01/10 07:27:34;;;;;;;3.95;2.70;;;23.00;41.30;;;;;;5148886;28;20038;-75
2021/01/10 07:30:24;;;;;;;3.35;2.67;;;23.10;40.90;;;;;;5180577;28;20036;-76
2021/01/10 07:32:54;;;;;;;2.45;2.25;;;23.10;40.90;;;;;;5180626;28;20031;-75
2021/01/10 07:35:25;;;;;;;3.63;2.25;;;23.20;40.80;;;;;;5184489;28;20032;-76
2021/01/10 07:37:56;;;;;;;2.60;2.25;;;23.20;40.70;;;;;;5165619;28;20041;-76
2021/01/10 07:40:29;;;;;;;3.90;2.10;;;23.10;40.70;;;;;;5151128;28;20032;-75
2021/01/10 07:43:01;;;;;;;3.25;2.35;;;23.10;40.60;;;;;;5181490;28;20180;-77
2021/01/10 07:45:38;;;;;;;23.42;2.50;;;23.10;40.60;;;;;;5150975;28;20038;-74
2021/01/10 07:48:24;;;;;;;2.40;2.20;;;23.20;40.40;;;;;;5183207;28;20431;-74
2021/01/10 07:51:14;;;;;;;2.40;2.17;;;23.20;40.50;;;;;;5182938;28;20492;-76
2021/01/10 07:53:46;;;;;;;2.40;2.17;;;23.10;40.40;;;;;;5179417;28;20045;-74
2021/01/10 07:56:17;;;;;;;2.40;2.20;;;23.10;40.20;;;;;;5182999;28;20543;-76
2021/01/10 07:58:48;;;;;;;2.22;2.03;;;23.10;40.20;;;;;;5183942;28;20069;-75
2021/01/10 08:01:18;;;;;;;1.98;1.77;;;23.10;40.30;;;;;;5182430;28;20026;-75
2021/01/10 08:03:49;;;;;;;2.78;2.40;;;23.10;40.20;;;;;;5182225;28;20038;-74
2021/01/10 08:06:19;;;;;;;2.40;2.03;;;23.10;40.30;;;;;;5183184;28;20112;-76
2021/01/10 08:08:50;;;;;;;2.22;2.03;;;23.00;40.30;;;;;;5166709;28;20085;-74
2021/01/10 08:11:39;;;;;;;2.53;2.13;;;23.00;40.30;;;;;;5152072;28;20014;-74
2021/01/10 08:14:13;;;;;;;2.38;2.08;;;23.10;40.30;;;;;;5163040;28;21684;-76
2021/01/10 08:16:43;;;;;;;2.70;2.08;;;23.00;40.20;;;;;;5182340;28;20495;-77
2021/01/10 08:19:14;;;;;;;2.08;1.88;;;23.00;40.30;;;;;;5185063;28;20030;-74
2021/01/10 08:21:44;;;;;;;2.65;2.17;;;23.00;40.20;;;;;;5166898;28;20390;-74
2021/01/10 08:24:17;;;;;;;2.25;2.05;;;23.00;40.20;;;;;;5184362;28;20017;-76
2021/01/10 08:26:48;;;;;;;2.00;1.80;;;23.10;40.20;;;;;;5167515;28;20026;-75
2021/01/10 08:29:18;;;;;;;3.10;1.90;;;23.00;40.00;;;;;;5184398;28;20075;-74
2021/01/10 08:31:49;;;;;;;1.67;1.58;;;23.00;39.90;;;;;;5167689;28;20088;-74
2021/01/10 08:34:20;;;;;;;2.75;2.03;;;23.10;39.90;;;;;;5185814;28;20029;-74
2021/01/10 08:36:50;;;;;;;2.25;2.05;;;22.90;39.90;;;;;;5181117;28;20060;-75
2021/01/10 08:39:21;;;;;;;3.20;2.40;;;23.00;40.10;;;;;;5167320;28;20036;-73
2021/01/10 08:41:51;;;;;;;6.55;2.92;;;22.90;40.10;;;;;;5192906;28;20524;-76
2021/01/10 08:44:23;;;;;;;40.85;9.18;;;22.90;40.40;;;;;;5159079;28;20041;-75
2021/01/10 08:46:54;;;;;;;70.20;12.63;;;22.90;41.90;;;;;;5156435;28;20096;-74
2021/01/10 08:49:25;;;;;;;57.25;12.98;;;23.10;42.50;;;;;;5176668;28;20030;-74
2021/01/10 08:51:56;;;;;;;43.15;9.73;;;23.10;42.60;;;;;;5159309;28;20045;-74
2021/01/10 08:54:27;;;;;;;37.30;9.45;;;23.10;42.90;;;;;;5182006;28;20038;-75
2021/01/10 08:56:57;;;;;;;35.72;8.52;;;23.20;42.80;;;;;;5183026;28;20054;-72
2021/01/10 08:59:36;;;;;;;30.10;7.55;;;23.20;42.70;;;;;;5182670;28;20080;-75
2021/01/10 09:02:07;;;;;;;18.92;6.22;;;23.20;42.60;;;;;;5162762;28;20497;-75
2021/01/10 09:04:41;;;;;;;23.48;7.25;;;23.20;42.60;;;;;;5163744;28;20038;-75
2021/01/10 09:07:12;;;;;;;17.38;6.18;;;23.30;42.50;;;;;;5163809;28;20854;-76
2021/01/10 09:09:47;;;;;;;26.13;6.00;;;23.30;42.70;;;;;;5179449;28;20057;-73
2021/01/10 09:12:37;;;;;;;22.00;6.15;;;23.20;42.50;;;;;;5174478;28;20022;-75
2021/01/10 09:15:21;;;;;;;18.58;6.15;;;23.20;42.60;;;;;;5182733;28;20053;-76
2021/01/10 09:17:56;;;;;;;20.52;5.25;;;23.30;42.20;;;;;;5150569;28;20097;-75
2021/01/10 09:20:29;;;;;;;15.63;5.15;;;23.30;41.90;;;;;;5182899;28;20018;-76
2021/01/10 09:22:59;;;;;;;13.25;4.50;;;23.30;41.80;;;;;;5182462;28;20026;-74
2021/01/10 09:25:32;;;;;;;12.57;4.50;;;23.30;41.90;;;;;;5150558;28;20076;-75
2021/01/10 09:28:15;;;;;;;12.80;4.82;;;23.40;41.60;;;;;;5182694;28;20625;-74
2021/01/10 09:30:53;;;;;;;12.10;4.15;;;23.30;41.70;;;;;;5182542;28;20034;-76
2021/01/10 09:33:25;;;;;;;10.68;4.43;;;23.20;41.80;;;;;;5182452;28;20403;-75
2021/01/10 09:35:56;;;;;;;10.98;3.80;;;23.20;41.80;;;;;;5182713;28;20033;-73
2021/01/10 09:38:31;;;;;;;11.02;4.10;;;23.20;41.60;;;;;;5182306;28;20037;-76
2021/01/10 09:41:09;;;;;;;9.02;3.80;;;23.20;41.70;;;;;;5182934;28;20105;-76
2021/01/10 09:43:47;;;;;;;8.27;3.60;;;23.20;41.70;;;;;;5166781;28;20450;-75
2021/01/10 09:46:36;;;;;;;8.50;3.53;;;23.10;41.90;;;;;;5183395;28;20042;-73
2021/01/10 09:49:15;;;;;;;8.68;3.53;;;23.00;41.90;;;;;;5167616;28;20041;-74
2021/01/10 09:51:48;;;;;;;7.85;3.53;;;23.10;41.80;;;;;;5167070;28;20022;-74
2021/01/10 09:54:29;;;;;;;6.53;3.13;;;23.10;41.80;;;;;;5183895;28;20490;-75
2021/01/10 09:57:00;;;;;;;7.40;3.50;;;23.00;41.90;;;;;;5182163;28;20083;-75
2021/01/10 09:59:31;;;;;;;5.85;2.83;;;23.00;41.70;;;;;;5166327;28;20041;-75
2021/01/10 10:02:11;;;;;;;8.30;3.08;;;23.00;41.70;;;;;;5181568;28;20052;-73
2021/01/10 10:04:46;;;;;;;7.40;3.15;;;23.00;41.80;;;;;;5182738;28;20452;-74
2021/01/10 10:07:49;;;;;;;7.43;3.00;;;23.00;41.70;;;;;;5166292;28;20037;-73
2021/01/10 10:10:23;;;;;;;6.20;2.95;;;23.00;41.60;;;;;;5161071;28;20549;-74
2021/01/10 10:12:58;;;;;;;5.35;2.70;;;23.10;41.70;;;;;;5181877;28;20464;-75
2021/01/10 10:15:39;;;;;;;4.93;2.30;;;23.10;41.70;;;;;;5183174;28;20410;-76
2021/01/10 10:18:16;;;;;;;5.55;2.80;;;23.00;41.70;;;;;;5165948;28;20041;-74
2021/01/10 10:20:47;;;;;;;4.82;2.63;;;23.10;41.50;;;;;;5167269;28;20018;-75
2021/01/10 10:23:17;;;;;;;5.25;2.70;;;23.10;41.40;;;;;;5180532;28;20034;-74
2021/01/10 10:25:49;;;;;;;5.63;2.70;;;23.10;41.00;;;;;;5178735;28;20098;-76
2021/01/10 10:28:22;;;;;;;6.85;2.60;;;23.00;41.20;;;;;;5178446;28;20501;-76
2021/01/10 10:30:52;;;;;;;5.60;2.60;;;23.00;41.30;;;;;;5185482;28;20117;-76
2021/01/10 10:33:23;;;;;;;3.53;2.42;;;23.00;41.20;;;;;;5163366;28;20022;-75
2021/01/10 10:35:54;;;;;;;4.45;2.47;;;23.00;41.10;;;;;;5186667;28;20045;-75
2021/01/10 10:38:25;;;;;;;4.53;2.47;;;23.10;40.90;;;;;;5170470;28;20122;-75
2021/01/10 10:40:55;;;;;;;6.15;2.65;;;23.10;40.90;;;;;;5175567;28;20390;-76
2021/01/10 10:43:26;;;;;;;3.65;2.53;;;23.10;40.90;;;;;;5168131;28;20038;-77
2021/01/10 10:45:56;;;;;;;3.60;2.38;;;23.10;40.80;;;;;;5185166;28;20045;-76
2021/01/10 10:48:27;;;;;;;4.03;2.60;;;23.00;40.90;;;;;;5179810;28;20037;-76
2021/01/10 10:50:57;;;;;;;4.03;2.58;;;23.00;40.90;;;;;;5184759;28;20100;-76
2021/01/10 10:53:28;;;;;;;5.40;2.50;;;23.00;40.90;;;;;;5177245;28;20124;-79
2021/01/10 10:55:58;;;;;;;3.58;2.28;;;23.00;40.90;;;;;;5167424;28;20033;-76
2021/01/10 10:58:29;;;;;;;2.65;2.17;;;23.00;40.90;;;;;;5168922;28;20113;-79
2021/01/10 11:00:59;;;;;;;3.90;2.45;;;23.10;40.90;;;;;;5184930;28;20037;-77
2021/01/10 11:03:30;;;;;;;5.20;2.50;;;23.00;40.90;;;;;;5164881;28;20045;-77
2021/01/10 11:06:00;;;;;;;3.47;2.10;;;23.00;40.90;;;;;;5175006;28;20030;-79
2021/01/10 11:08:31;;;;;;;3.70;2.10;;;23.00;41.10;;;;;;5171928;28;20100;-78
2021/01/10 11:11:01;;;;;;;4.72;2.15;;;23.00;40.90;;;;;;5203773;28;20033;-79
2021/01/10 11:13:32;;;;;;;4.72;2.33;;;23.10;41.00;;;;;;5148937;28;20037;-78
2021/01/10 11:16:03;;;;;;;5.75;2.55;;;23.10;40.90;;;;;;5150364;28;20410;-77
2021/01/10 11:18:34;;;;;;;5.60;2.17;;;23.10;41.00;;;;;;5168833;28;20081;-78
2021/01/10 11:21:04;;;;;;;3.22;2.13;;;23.10;40.90;;;;;;5170222;28;20022;-77
2021/01/10 11:23:35;;;;;;;2.55;2.10;;;23.10;40.90;;;;;;5173636;28;20050;-79
2021/01/10 11:26:05;;;;;;;4.32;2.10;;;23.20;40.90;;;;;;5165956;28;20018;-80
2021/01/10 11:28:36;;;;;;;4.25;2.17;;;23.20;41.00;;;;;;5188086;28;20034;-81
2021/01/10 11:31:06;;;;;;;4.22;2.10;;;23.20;41.00;;;;;;5170624;28;20655;-80
2021/01/10 11:33:38;;;;;;;8.00;2.33;;;23.20;41.50;;;;;;5159753;28;20029;-79
2021/01/10 11:36:08;;;;;;;2.92;2.15;;;23.30;41.00;;;;;;5186219;28;20099;-78
2021/01/10 11:38:40;;;;;;;2.30;1.90;;;23.30;41.00;;;;;;5170395;28;20034;-79
2021/01/10 11:41:11;;;;;;;3.75;2.05;;;23.20;41.00;;;;;;5162975;28;20018;-79
2021/01/10 11:43:42;;;;;;;7.22;2.13;;;23.20;41.00;;;;;;5198550;28;20112;-78
2021/01/10 11:46:12;;;;;;;3.58;2.10;;;23.20;41.00;;;;;;5167895;28;20040;-77
2021/01/10 11:48:43;;;;;;;6.82;2.40;;;23.10;41.00;;;;;;5147667;28;20044;-79
2021/01/10 11:51:15;;;;;;;3.08;2.08;;;23.20;41.00;;;;;;5166823;28;20037;-78
2021/01/10 11:53:46;;;;;;;4.10;2.13;;;23.10;41.10;;;;;;5164914;28;20073;-79
2021/01/10 11:56:16;;;;;;;4.55;2.03;;;23.20;41.20;;;;;;5168823;28;20042;-77
2021/01/10 11:58:47;;;;;;;4.30;2.30;;;23.10;41.20;;;;;;5168055;28;20041;-80
2021/01/10 12:01:17;;;;;;;5.65;2.05;;;23.10;41.30;;;;;;5183276;28;20038;-76
2021/01/10 12:03:48;;;;;;;4.20;2.00;;;23.20;41.20;;;;;;5184534;28;20045;-80
2021/01/10 12:06:19;;;;;;;2.38;2.10;;;23.10;41.30;;;;;;5183685;28;20038;-78
2021/01/10 12:08:50;;;;;;;2.47;2.00;;;23.10;41.30;;;;;;5168294;28;20057;-79
2021/01/10 12:11:20;;;;;;;4.15;2.13;;;23.20;41.10;;;;;;5171642;28;20044;-78
2021/01/10 12:13:51;;;;;;;10.63;2.20;;;23.20;41.30;;;;;;5188323;28;20045;-80
2021/01/10 12:16:21;;;;;;;8.80;2.70;;;23.20;41.30;;;;;;5171730;28;20116;-80
2021/01/10 12:18:52;;;;;;;4.43;1.92;;;23.20;41.50;;;;;;5184104;28;20044;-80
2021/01/10 12:21:23;;;;;;;5.13;2.33;;;23.20;41.50;;;;;;5171033;28;20371;-79
2021/01/10 12:23:53;;;;;;;4.40;2.13;;;23.20;41.30;;;;;;5173725;28;20034;-81
2021/01/10 12:26:24;;;;;;;3.38;2.00;;;23.10;41.50;;;;;;5166994;28;20041;-80
2021/01/10 12:28:54;;;;;;;3.67;2.30;;;23.10;41.60;;;;;;5202019;28;20041;-81
2021/01/10 12:31:25;;;;;;;3.45;1.88;;;23.10;41.70;;;;;;5167072;28;20061;-80
2021/01/10 12:33:56;;;;;;;2.70;1.95;;;23.10;41.60;;;;;;5168731;28;20083;-79
2021/01/10 12:36:26;;;;;;;5.07;2.20;;;23.00;41.50;;;;;;5190155;28;20036;-79
2021/01/10 12:38:57;;;;;;;3.55;1.98;;;23.10;41.40;;;;;;5172036;28;20022;-78
2021/01/10 12:41:28;;;;;;;4.55;1.70;;;23.20;41.30;;;;;;5175504;28;20079;-80
2021/01/10 12:43:59;;;;;;;2.50;1.90;;;23.10;41.30;;;;;;5149713;28;20037;-81
2021/01/10 12:46:30;;;;;;;2.38;1.70;;;23.10;41.30;;;;;;5167591;28;20022;-81
2021/01/10 12:49:01;;;;;;;3.53;1.90;;;23.10;41.20;;;;;;5161928;28;20072;-79
2021/01/10 12:51:38;;;;;;;4.53;2.13;;;23.10;41.30;;;;;;5170256;28;20029;-79
2021/01/10 12:54:08;;;;;;;4.88;2.45;;;23.00;41.40;;;;;;5154910;28;20418;-78
2021/01/10 12:56:39;;;;;;;3.38;1.90;;;23.10;41.40;;;;;;5159220;28;20033;-78
2021/01/10 12:59:09;;;;;;;3.25;2.10;;;23.20;41.40;;;;;;5160168;28;20026;-78
2021/01/10 13:01:40;;;;;;;4.80;2.10;;;23.20;41.00;;;;;;5170270;28;20030;-79
2021/01/10 13:04:10;;;;;;;2.38;1.70;;;23.20;41.20;;;;;;5179510;28;20058;-79
2021/01/10 13:06:41;;;;;;;3.58;1.98;;;23.20;41.20;;;;;;5205496;28;20018;-79
2021/01/10 13:09:12;;;;;;;4.30;1.67;;;23.10;41.30;;;;;;5188865;28;20030;-78
2021/01/10 13:11:44;;;;;;;4.40;1.98;;;23.10;41.20;;;;;;5156424;28;20033;-79